Briscoe, Texas
Current Conditions -  °F | °C
As of 12:35 PM on Monday 22 Dec 2014 (Local Time) from KHHF Reporting Station
Scattered Clouds Scattered Clouds  
Wind Chill: 52°   Ceiling: Unl
Heat Index: 52°   Visibility: NA
Dew Point: 32°   Wind: 18mph
Humidity: 46%   Direction: 350°N
Pressure: 29.67"   Gusts: 26mph
Location:  35.58°N, 100.29°W
Report Text: KHHF 221835Z AUTO 35016G23KT SCT110 11/00 A2967 RMK AO2 T01130000 PWINO
Loading
Personal Weather Stations






























Interactive Weather Map New forecast layout! Learn more

10-Day Weather Forecast

Advertisements
Track Severe Weather on mobile